Latest METARs, TAFs and NOTAMs for LHBP


---------------------------------------------------------------------------
	(OBSERVATIONS)
LHBP 251030Z 17004KT 140V200 9000 NSC 14/05 Q1034 NOSIG=
LHBP 251000Z 16003KT 090V190 8000 NSC 13/06 Q1034 NOSIG=
LHBP 250930Z 15004KT 110V190 7000 NSC 12/06 Q1034 NOSIG=
LHBP 250900Z 11003KT 080V140 6000 NSC 10/06 Q1034 NOSIG=
LHBP 250830Z 12003KT 090V150 6000 NSC 09/05 Q1034 NOSIG=
LHBP 250800Z 13004KT 100V160 4000 BR NSC 08/06 Q1034 BECMG 5000
    BR=
LHBP 250746Z 14003KT 110V170 3000 BR NSC 07/06 Q1034 BECMG 5000
    BR=
---------------------------------------------------------------------------
	(FC)
Sorry, FC For LHBP Not Found
---------------------------------------------------------------------------
	(TERMINAL AREA FORECAST)
LHBP 250515Z 2506/2606 VRB03KT 1200 BCFG BR NSC
    TEMPO 2506/2508 0300 FZFG VV001
    BECMG 2508/2510 14006KT 5000 BR
    BECMG 2510/2512 CAVOK
    BECMG 2521/2524 VRB03KT 4000 BR
    BECMG 2600/2602 2000 BCFG BR
    TEMPO 2602/2606 0400 FG VV001=
---------------------------------------------------------------------------
	(NOTAMS)


Sorry, no NOTAM available for LHBP
---------------------------------------------------------------------------